Time;durP1;ratioP1;P1;durP2;ratioP2;P2;SDS_P1;SDS_P2;PMS_P1;PMS_P2;Temp;Humidity;BMP_temperature;BMP_pressure;BME280_temperature;BME280_humidity;BME280_pressure;Samples;Min_cycle;Max_cycle;Signal;HPM_P1;HPM_P2
2022/08/06 00:01:06;;;;;;;13.77;12.63;;;;;;;27.33;55.09;100229.16;4910080;28;97400;-85
2022/08/06 00:03:32;;;;;;;15.07;12.40;;;;;;;27.31;54.76;100237.44;4911111;28;97425;-84
2022/08/06 00:05:57;;;;;;;13.07;12.07;;;;;;;27.13;55.00;100230.41;4893096;28;100198;-83
2022/08/06 00:08:23;;;;;;;13.65;12.40;;;;;;;27.11;55.20;100244.03;4894992;28;98356;-84
2022/08/06 00:10:48;;;;;;;13.55;12.55;;;;;;;27.19;55.20;100271.03;4894495;28;96999;-84
2022/08/06 00:13:14;;;;;;;13.10;12.15;;;;;;;27.13;55.35;100263.56;4893574;28;96966;-84
2022/08/06 00:15:39;;;;;;;13.93;12.75;;;;;;;27.16;55.32;100270.53;4918622;28;100480;-84
2022/08/06 00:18:05;;;;;;;13.70;12.50;;;;;;;27.06;55.22;100260.69;4896496;28;101504;-84
2022/08/06 00:20:30;;;;;;;13.10;12.00;;;;;;;27.08;55.02;100265.91;4894563;28;96866;-84
2022/08/06 00:22:56;;;;;;;13.65;12.40;;;;;;;27.04;55.24;100284.22;4895274;28;97063;-84
2022/08/06 00:25:22;;;;;;;13.55;12.45;;;;;;;27.05;55.39;100299.41;4905115;28;101018;-84
2022/08/06 00:27:47;;;;;;;13.65;12.40;;;;;;;27.07;55.34;100327.00;4885874;28;102269;-84
2022/08/06 00:30:13;;;;;;;13.57;12.77;;;;;;;27.02;55.67;100326.66;4895563;28;98007;-84
2022/08/06 00:32:38;;;;;;;13.30;12.32;;;;;;;27.20;55.55;100336.53;4914304;28;97889;-84
2022/08/06 00:35:04;;;;;;;13.10;12.23;;;;;;;27.14;56.22;100337.16;4896781;28;101501;-83
2022/08/06 00:37:32;;;;;;;13.75;12.75;;;;;;;26.86;57.70;100315.78;4913827;28;97440;-83
2022/08/06 00:39:59;;;;;;;13.82;12.82;;;;;;;26.75;58.31;100299.88;4913611;28;96762;-85
2022/08/06 00:42:25;;;;;;;13.57;12.73;;;;;;;26.79;58.47;100315.56;4909521;28;96992;-84
2022/08/06 00:44:51;;;;;;;14.10;13.05;;;;;;;26.74;58.68;100292.81;4888456;28;101504;-84
2022/08/06 00:47:16;;;;;;;13.80;12.55;;;;;;;26.72;58.86;100286.72;4897827;28;97562;-84
2022/08/06 00:49:41;;;;;;;13.48;12.57;;;;;;;26.62;59.05;100278.75;4897600;28;97185;-84
2022/08/06 00:52:07;;;;;;;14.00;13.00;;;;;;;26.60;59.17;100270.81;4928568;28;96818;-84
2022/08/06 00:54:32;;;;;;;13.68;12.65;;;;;;;26.65;58.75;100270.38;4914185;28;97976;-84
2022/08/06 00:56:58;;;;;;;14.35;13.05;;;;;;;26.52;59.03;100267.22;4909742;28;99796;-84
2022/08/06 00:59:23;;;;;;;13.45;12.35;;;;;;;26.51;59.03;100257.47;4914382;28;96641;-84
2022/08/06 01:01:49;;;;;;;13.93;12.93;;;;;;;26.50;59.32;100282.69;4913332;28;96983;-84
2022/08/06 01:04:15;;;;;;;13.95;13.05;;;;;;;26.38;59.57;100279.34;4881013;28;101147;-84
2022/08/06 01:06:40;;;;;;;14.18;12.88;;;;;;;26.45;58.99;100264.28;4895153;28;101370;-84
2022/08/06 01:09:06;;;;;;;14.27;13.25;;;;;;;26.51;59.22;100282.53;4904717;28;96867;-84
2022/08/06 01:11:31;;;;;;;13.32;12.45;;;;;;;26.48;59.14;100284.66;4913446;28;96955;-84
2022/08/06 01:13:57;;;;;;;13.63;12.63;;;;;;;26.40;59.12;100270.13;4894746;28;97396;-84
2022/08/06 01:16:37;;;;;;;14.70;13.60;;;;;;;26.42;59.46;100286.13;4907314;28;97358;-84
2022/08/06 01:19:10;;;;;;;;;;;;;;;26.41;59.33;100287.97;4914626;28;96614;-83
2022/08/06 01:21:51;;;;;;;13.80;12.90;;;;;;;26.30;59.15;100273.94;4913211;28;96785;-84
2022/08/06 01:24:39;;;;;;;13.73;12.82;;;;;;;26.47;59.05;100307.19;4896609;28;101652;-84
2022/08/06 01:27:42;;;;;;;13.45;12.48;;;;;;;26.40;59.19;100305.09;4913057;28;97268;-84
2022/08/06 01:30:12;;;;;;;13.77;12.85;;;;;;;26.45;59.11;100304.66;4896322;28;96714;-84
2022/08/06 01:32:45;;;;;;;13.68;12.68;;;;;;;26.57;59.15;100324.13;4894140;28;98542;-84
2022/08/06 01:35:16;;;;;;;13.95;12.90;;;;;;;26.48;59.60;100333.09;4880022;28;101601;-84
2022/08/06 01:37:44;;;;;;;;;;;;;;;26.36;59.84;100338.72;4898078;28;101039;-84
2022/08/06 01:40:22;;;;;;;13.80;12.90;;;;;;;26.33;60.03;100335.50;4896194;28;96772;-85
2022/08/06 01:42:48;;;;;;;14.95;13.80;;;;;;;26.36;59.66;100327.13;4881455;28;96891;-84
2022/08/06 01:45:15;;;;;;;13.35;12.55;;;;;;;26.23;60.12;100321.25;4879766;28;101758;-84
2022/08/06 01:47:44;;;;;;;14.45;13.13;;;;;;;26.12;60.14;100314.25;4913325;28;97491;-85
2022/08/06 01:50:09;;;;;;;14.80;13.85;;;;;;;26.02;59.73;100327.78;4880206;28;96748;-85
2022/08/06 01:52:39;;;;;;;14.40;13.40;;;;;;;26.07;59.46;100348.84;4908364;28;97066;-84
2022/08/06 01:55:11;;;;;;;15.50;14.40;;;;;;;26.04;59.10;100347.31;4868445;28;101288;-83
2022/08/06 01:57:38;;;;;;;15.32;14.18;;;;;;;26.03;59.65;100366.28;4910908;28;97374;-84
2022/08/06 02:00:05;;;;;;;15.27;13.88;;;;;;;26.17;58.77;100373.81;4896508;28;97039;-83
2022/08/06 02:02:39;;;;;;;15.57;14.15;;;;;;;26.16;59.18;100372.16;4910208;28;96788;-85
2022/08/06 02:05:05;;;;;;;14.98;13.85;;;;;;;26.18;58.99;100376.38;4875276;28;101853;-84
2022/08/06 02:07:34;;;;;;;16.15;14.80;;;;;;;26.11;59.19;100385.19;4904174;28;98090;-84
2022/08/06 02:10:01;;;;;;;15.88;14.48;;;;;;;26.04;59.45;100390.34;4892755;28;96806;-84
2022/08/06 02:12:27;;;;;;;15.65;13.85;;;;;;;25.86;59.72;100374.16;4892443;28;97496;-84
2022/08/06 02:15:14;;;;;;;15.07;13.90;;;;;;;25.96;59.91;100396.47;4892824;28;101338;-84
2022/08/06 02:17:45;;;;;;;15.70;14.38;;;;;;;25.88;60.01;100390.13;4904378;28;101876;-84
2022/08/06 02:20:11;;;;;;;15.63;14.20;;;;;;;25.96;59.70;100403.69;4892575;28;96788;-84
2022/08/06 02:22:38;;;;;;;15.95;14.52;;;;;;;25.88;59.93;100393.66;4880937;28;96903;-85
2022/08/06 02:25:08;;;;;;;15.57;14.25;;;;;;;25.95;59.92;100424.34;4892539;28;101505;-84
2022/08/06 02:27:35;;;;;;;15.10;14.07;;;;;;;25.74;60.64;100421.88;4893498;28;97580;-84
2022/08/06 02:30:01;;;;;;;14.60;13.38;;;;;;;25.77;60.45;100450.28;4911834;28;96696;-84
2022/08/06 02:32:27;;;;;;;14.40;13.27;;;;;;;25.71;60.11;100429.38;4912033;28;97749;-84
2022/08/06 02:34:53;;;;;;;14.52;13.45;;;;;;;25.54;59.86;100433.69;4911227;28;97815;-84
2022/08/06 02:37:23;;;;;;;14.38;13.38;;;;;;;25.54;59.06;100441.75;4891750;28;101576;-84
2022/08/06 02:40:02;;;;;;;15.15;13.90;;;;;;;25.46;59.74;100473.88;4911037;28;96978;-84
2022/08/06 02:42:52;;;;;;;13.60;12.65;;;;;;;25.49;59.54;100470.88;4892901;28;98035;-84
2022/08/06 02:45:23;;;;;;;13.32;12.43;;;;;;;25.32;59.44;100475.16;4899814;28;97674;-84
2022/08/06 02:47:53;;;;;;;13.68;12.77;;;;;;;25.25;59.20;100492.84;4895455;28;101479;-84
2022/08/06 02:50:22;;;;;;;14.27;12.85;;;;;;;25.19;58.95;100479.97;4912843;28;96641;-85
2022/08/06 02:53:01;;;;;;;13.50;12.45;;;;;;;25.09;59.00;100477.28;4912098;28;96900;-84
2022/08/06 02:55:31;;;;;;;13.02;12.13;;;;;;;25.05;58.65;100471.34;4891446;28;100157;-84
2022/08/06 02:58:01;;;;;;;12.80;12.05;;;;;;;24.94;58.23;100466.09;4890166;28;101514;-84
2022/08/06 03:00:27;;;;;;;13.88;12.75;;;;;;;24.98;57.74;100446.03;4891561;28;96771;-84
2022/08/06 03:02:56;;;;;;;12.70;11.90;;;;;;;25.06;57.82;100475.72;4892584;28;96928;-84
2022/08/06 03:05:22;;;;;;;12.60;11.80;;;;;;;24.96;58.21;100484.75;4909926;28;98257;-84
2022/08/06 03:07:51;;;;;;;12.45;11.55;;;;;;;25.03;57.71;100489.41;4892498;28;98071;-84
2022/08/06 03:10:21;;;;;;;11.93;11.23;;;;;;;25.15;57.30;100482.09;4891626;28;96906;-84
2022/08/06 03:12:47;;;;;;;12.10;11.30;;;;;;;24.80;58.42;100419.06;4883165;28;96736;-84
2022/08/06 03:15:13;;;;;;;12.38;11.48;;;;;;;24.79;58.68;100408.47;4875006;28;100163;-84
2022/08/06 03:17:40;;;;;;;12.75;11.90;;;;;;;24.72;58.80;100407.34;4892314;28;101051;-85
2022/08/06 03:20:07;;;;;;;12.93;12.20;;;;;;;24.81;59.38;100433.31;4889989;28;98456;-84
2022/08/06 03:22:32;;;;;;;12.88;12.07;;;;;;;24.65;60.07;100420.47;4878975;28;96988;-84
2022/08/06 03:24:59;;;;;;;12.65;11.85;;;;;;;24.66;59.94;100405.22;4891571;28;97307;-84
2022/08/06 03:27:24;;;;;;;12.40;11.50;;;;;;;24.30;60.61;100397.66;4892302;28;101482;-84
2022/08/06 03:29:50;;;;;;;12.88;12.07;;;;;;;24.34;60.71;100412.50;4891568;28;97255;-84
2022/08/06 03:32:16;;;;;;;12.60;11.80;;;;;;;24.14;61.38;100395.53;4890899;28;97025;-83
2022/08/06 03:34:43;;;;;;;12.18;11.48;;;;;;;24.27;61.43;100445.38;4911075;28;98032;-83
2022/08/06 03:37:09;;;;;;;12.32;11.63;;;;;;;24.17;61.28;100430.13;4891746;28;101324;-83
2022/08/06 03:39:36;;;;;;;13.40;12.30;;;;;;;24.24;61.71;100470.63;4890891;28;96835;-84
2022/08/06 03:42:02;;;;;;;13.25;12.35;;;;;;;24.24;61.72;100476.00;4876422;28;96769;-84
2022/08/06 03:44:28;;;;;;;12.63;11.73;;;;;;;24.11;61.52;100486.94;4908726;28;97579;-83
2022/08/06 03:47:06;;;;;;;12.65;11.73;;;;;;;24.10;61.47;100479.06;4892123;28;98116;-83
2022/08/06 03:49:46;;;;;;;12.00;11.30;;;;;;;23.98;61.67;100480.16;4891140;28;97242;-83
2022/08/06 03:52:16;;;;;;;12.85;12.05;;;;;;;24.03;61.75;100478.75;4891614;28;97381;-83
2022/08/06 03:54:47;;;;;;;13.27;12.40;;;;;;;24.13;61.29;100494.88;4893099;28;98147;-84
2022/08/06 03:57:25;;;;;;;13.63;12.27;;;;;;;24.01;61.67;100507.53;4891992;28;101321;-83
2022/08/06 03:59:53;;;;;;;13.20;12.13;;;;;;;23.95;61.59;100506.22;4891054;28;96760;-83
2022/08/06 04:02:19;;;;;;;12.48;11.32;;;;;;;23.90;61.22;100524.53;4891535;28;96863;-83
2022/08/06 04:04:46;;;;;;;12.30;11.20;;;;;;;23.83;60.75;100520.72;4893267;28;97493;-83
2022/08/06 04:07:14;;;;;;;11.63;10.80;;;;;;;23.68;60.78;100532.72;4892577;28;97951;-83
2022/08/06 04:09:40;;;;;;;11.25;10.45;;;;;;;23.50;61.14;100521.72;4906154;28;96776;-83
2022/08/06 04:12:06;;;;;;;11.05;10.45;;;;;;;23.59;60.70;100534.34;4911289;28;101309;-83
2022/08/06 04:14:33;;;;;;;11.05;10.45;;;;;;;23.36;60.72;100541.66;4893507;28;100995;-83
2022/08/06 04:17:01;;;;;;;10.85;10.15;;;;;;;23.31;60.88;100559.09;4878823;28;100959;-83
2022/08/06 04:19:27;;;;;;;11.35;10.63;;;;;;;23.32;60.69;100563.47;4890687;28;96991;-83
2022/08/06 04:21:53;;;;;;;11.25;10.65;;;;;;;23.26;60.01;100581.72;4889568;28;96996;-83
2022/08/06 04:24:19;;;;;;;10.93;10.27;;;;;;;23.17;59.96;100585.19;4891113;28;98165;-82
2022/08/06 04:26:45;;;;;;;11.57;10.88;;;;;;;22.99;59.61;100602.78;4903007;28;101052;-82
2022/08/06 04:29:12;;;;;;;11.75;11.00;;;;;;;22.69;58.86;100614.94;4875364;28;98207;-82
2022/08/06 04:31:39;;;;;;;12.07;11.27;;;;;;;22.62;58.82;100621.75;4885540;28;99133;-82
2022/08/06 04:34:05;;;;;;;11.60;10.90;;;;;;;22.61;58.16;100638.78;4878565;28;101185;-82
2022/08/06 04:36:31;;;;;;;11.70;11.00;;;;;;;22.49;58.42;100637.94;4909903;28;97895;-82
2022/08/06 04:38:57;;;;;;;11.93;11.02;;;;;;;22.36;58.08;100648.72;4878200;28;97058;-82
2022/08/06 04:41:22;;;;;;;11.32;10.63;;;;;;;22.32;58.65;100663.31;4894234;28;96888;-82
2022/08/06 04:43:48;;;;;;;11.68;10.65;;;;;;;22.30;58.97;100664.41;4910857;28;98165;-82
2022/08/06 04:46:14;;;;;;;11.18;10.48;;;;;;;22.24;58.48;100673.75;4909977;28;97357;-84
2022/08/06 04:48:39;;;;;;;11.85;10.68;;;;;;;22.24;58.56;100680.94;4899542;28;97353;-82
2022/08/06 04:51:05;;;;;;;11.77;10.70;;;;;;;22.10;59.18;100681.94;4873114;28;97101;-82
2022/08/06 04:53:40;;;;;;;10.95;10.15;;;;;;;22.10;59.11;100666.75;4883134;28;97841;-83
2022/08/06 04:56:07;;;;;;;11.93;10.88;;;;;;;22.26;58.76;100693.22;4882734;28;98421;-82
2022/08/06 04:58:33;;;;;;;11.18;10.32;;;;;;;22.34;58.61;100690.81;4899717;28;97239;-82
2022/08/06 05:00:59;;;;;;;11.15;10.45;;;;;;;22.25;58.71;100699.53;4892133;28;97176;-82
2022/08/06 05:03:25;;;;;;;11.40;10.60;;;;;;;22.23;58.90;100714.00;4894476;28;97467;-82
2022/08/06 05:06:19;;;;;;;10.55;9.85;;;;;;;22.20;59.38;100716.91;4887811;28;99903;-82
2022/08/06 05:08:49;;;;;;;10.60;9.95;;;;;;;22.29;58.98;100735.75;4881723;28;97194;-82
2022/08/06 05:11:25;;;;;;;11.27;10.32;;;;;;;22.07;60.08;100735.66;4904486;28;97276;-82
2022/08/06 05:13:57;;;;;;;10.63;9.77;;;;;;;22.09;59.62;100715.84;4894373;28;98079;-83
2022/08/06 05:16:24;;;;;;;11.40;10.43;;;;;;;22.11;59.63;100727.28;4907155;28;101337;-82
2022/08/06 05:18:53;;;;;;;10.50;9.80;;;;;;;22.08;59.60;100716.00;4897225;28;101275;-83
2022/08/06 05:21:23;;;;;;;11.00;10.23;;;;;;;22.23;59.74;100751.44;4897850;28;96904;-85
2022/08/06 05:23:51;;;;;;;11.23;10.48;;;;;;;22.08;60.32;100748.91;4880835;28;100392;-83
2022/08/06 05:26:16;;;;;;;11.95;11.00;;;;;;;21.90;60.59;100742.25;4893562;28;101487;-82
2022/08/06 05:28:42;;;;;;;11.00;10.30;;;;;;;22.08;60.20;100754.25;4893404;28;97101;-82
2022/08/06 05:31:08;;;;;;;10.52;9.82;;;;;;;22.04;60.60;100767.97;4913448;28;96884;-82
2022/08/06 05:33:39;;;;;;;11.40;10.60;;;;;;;21.97;61.04;100767.56;4893435;28;101347;-82
2022/08/06 05:36:13;;;;;;;11.32;10.50;;;;;;;21.96;61.01;100773.00;4877136;28;101761;-82
2022/08/06 05:38:40;;;;;;;11.40;10.52;;;;;;;21.93;61.19;100774.97;4885940;28;96727;-82
2022/08/06 05:41:10;;;;;;;11.38;10.48;;;;;;;22.01;60.87;100766.38;4893538;28;97037;-83
2022/08/06 05:43:37;;;;;;;11.88;10.68;;;;;;;21.93;61.20;100756.28;4904071;28;97285;-83
2022/08/06 05:46:07;;;;;;;11.50;10.65;;;;;;;22.00;60.68;100777.19;4880430;28;101596;-83
2022/08/06 05:48:37;;;;;;;11.50;10.45;;;;;;;21.98;60.69;100787.13;4893618;28;96827;-83
2022/08/06 05:51:08;;;;;;;11.27;10.43;;;;;;;21.91;61.17;100794.75;4908766;28;96911;-83
2022/08/06 05:53:44;;;;;;;;;;;;;;;21.85;61.23;100801.41;4880490;28;101416;-83
2022/08/06 05:56:17;;;;;;;11.18;10.35;;;;;;;21.74;61.57;100804.00;4894816;28;101094;-84
2022/08/06 05:58:51;;;;;;;11.13;10.32;;;;;;;21.93;60.76;100800.81;4893605;28;96700;-82
2022/08/06 06:01:16;;;;;;;11.20;10.18;;;;;;;;;;4909423;28;97460;-82
2022/08/06 06:03:43;;;;;;;11.25;10.35;;;;;;;21.72;61.52;100794.41;4912732;28;98301;-83
2022/08/06 06:06:08;;;;;;;11.32;10.63;;;;;;;21.75;61.63;100804.84;4877524;28;99477;-82
2022/08/06 06:08:35;;;;;;;11.15;10.38;;;;;;;21.83;61.66;100815.84;4893323;28;96807;-82
2022/08/06 06:11:02;;;;;;;11.80;10.98;;;;;;;21.89;61.54;100802.88;4905844;28;96830;-83
2022/08/06 06:13:29;;;;;;;12.57;11.48;;;;;;;21.90;61.53;100814.41;4880376;28;101701;-83
2022/08/06 06:16:19;;;;;;;12.48;11.00;;;;;;;21.91;61.64;100818.81;4877247;28;101414;-84
2022/08/06 06:18:52;;;;;;;11.15;10.48;;;;;;;22.01;61.13;100810.94;4882364;28;96701;-83
2022/08/06 06:21:30;;;;;;;11.10;10.20;;;;;;;21.96;61.04;100816.63;4896377;28;97353;-83
2022/08/06 06:24:41;;;;;;;12.18;10.85;;;;;;;21.96;61.20;100813.94;4895985;28;101285;-83
2022/08/06 06:27:15;;;;;;;10.70;9.90;;;;;;;21.98;61.53;100829.88;4890625;28;101452;-83
2022/08/06 06:29:54;;;;;;;11.48;10.77;;;;;;;21.94;62.21;100818.59;4911464;28;97025;-82
2022/08/06 06:32:47;;;;;;;11.27;10.38;;;;;;;21.95;62.21;100825.63;4896287;28;96766;-85
2022/08/06 06:35:26;;;;;;;10.75;10.00;;;;;;;21.99;61.52;100835.13;4912879;28;97734;-82
2022/08/06 06:38:13;;;;;;;11.13;10.43;;;;;;;21.86;61.61;100819.13;4877555;28;101123;-83
2022/08/06 06:40:44;;;;;;;12.32;10.85;;;;;;;21.95;61.54;100852.34;4906496;28;96743;-82
2022/08/06 06:43:17;;;;;;;11.52;10.82;;;;;;;21.95;61.49;100856.84;4896651;28;96732;-83
2022/08/06 06:45:56;;;;;;;10.57;9.88;;;;;;;21.87;61.64;100857.41;4911117;28;98482;-83
2022/08/06 06:48:32;;;;;;;11.63;10.82;;;;;;;21.81;61.45;100857.84;4892962;28;101749;-83
2022/08/06 06:51:03;;;;;;;11.02;10.32;;;;;;;21.74;61.35;100845.91;4878013;28;96779;-83
2022/08/06 06:53:31;;;;;;;11.00;10.20;;;;;;;21.60;61.84;100849.56;4892789;28;96764;-83
2022/08/06 06:55:58;;;;;;;11.80;10.98;;;;;;;21.68;61.57;100850.72;4890091;28;100195;-83
2022/08/06 06:58:25;;;;;;;11.30;10.52;;;;;;;21.82;62.05;100867.59;4896309;28;97984;-82
2022/08/06 07:00:53;;;;;;;11.77;10.82;;;;;;;21.75;61.94;100861.81;4892079;28;96897;-83
2022/08/06 07:03:19;;;;;;;10.52;9.73;;;;;;;21.77;61.92;100867.06;4895390;28;97060;-83
2022/08/06 07:05:46;;;;;;;11.20;10.20;;;;;;;21.70;62.00;100870.19;4892073;28;99002;-83
2022/08/06 07:08:13;;;;;;;10.95;10.15;;;;;;;21.74;62.11;100876.16;4893394;28;100711;-83
2022/08/06 07:10:39;;;;;;;10.70;9.75;;;;;;;21.75;61.81;100866.31;4891299;28;97681;-83
2022/08/06 07:13:06;;;;;;;10.73;9.90;;;;;;;21.80;61.75;100854.31;4891241;28;97259;-83
2022/08/06 07:15:32;;;;;;;10.55;9.75;;;;;;;21.73;62.01;100860.22;4894903;28;97810;-84
2022/08/06 07:17:58;;;;;;;11.23;10.52;;;;;;;21.72;62.25;100878.06;4895706;28;101386;-83
2022/08/06 07:20:27;;;;;;;11.18;10.10;;;;;;;21.83;62.15;100870.13;4893661;28;96752;-83
2022/08/06 07:22:54;;;;;;;10.77;9.88;;;;;;;21.70;62.09;100853.31;4879481;28;96960;-83
2022/08/06 07:25:21;;;;;;;11.20;10.50;;;;;;;21.76;62.38;100860.00;4892110;28;99087;-83
2022/08/06 07:27:49;;;;;;;10.90;10.05;;;;;;;21.73;62.16;100882.47;4879001;28;100958;-83
2022/08/06 07:30:16;;;;;;;11.57;10.45;;;;;;;21.87;61.59;100882.28;4911315;28;97281;-84
2022/08/06 07:32:43;;;;;;;11.60;10.80;;;;;;;21.77;61.88;100853.69;4910661;28;97331;-83
2022/08/06 07:35:09;;;;;;;10.57;9.88;;;;;;;21.74;62.10;100873.47;4891159;28;97611;-83
2022/08/06 07:37:37;;;;;;;11.13;10.32;;;;;;;21.87;61.52;100884.13;4894579;28;101416;-83
2022/08/06 07:40:05;;;;;;;10.13;9.45;;;;;;;21.78;61.48;100884.78;4891353;28;96736;-84
2022/08/06 07:42:30;;;;;;;10.88;10.07;;;;;;;21.97;60.87;100885.16;4881855;28;99193;-82
2022/08/06 07:45:00;;;;;;;10.43;9.63;;;;;;;21.87;61.77;100895.66;4891751;28;101561;-83
2022/08/06 07:47:30;;;;;;;10.70;10.00;;;;;;;21.82;61.45;100881.78;4889468;28;101455;-83
2022/08/06 07:49:57;;;;;;;11.43;10.60;;;;;;;21.90;61.23;100890.13;4891558;28;97197;-83
2022/08/06 07:52:25;;;;;;;12.32;11.52;;;;;;;21.92;60.93;100890.00;4875773;28;97017;-85
2022/08/06 07:54:52;;;;;;;12.30;11.32;;;;;;;22.02;60.89;100901.72;4893963;28;97839;-83
2022/08/06 07:57:18;;;;;;;11.20;10.35;;;;;;;21.88;61.47;100918.75;4911039;28;97442;-83
2022/08/06 07:59:44;;;;;;;11.23;10.20;;;;;;;21.81;61.12;100903.28;4890148;28;97546;-83
2022/08/06 08:02:10;;;;;;;10.50;9.82;;;;;;;21.88;60.16;100913.41;4885070;28;96967;-83
2022/08/06 08:07:21;;;;;;;10.93;10.15;;;;;;;21.82;61.15;100905.84;4911445;28;97899;-84
2022/08/06 08:09:47;;;;;;;11.23;10.43;;;;;;;21.86;61.35;100904.66;4892929;28;97337;-84
2022/08/06 08:12:18;;;;;;;11.30;10.57;;;;;;;21.93;61.44;100939.78;4911069;28;98566;-83
2022/08/06 08:14:45;;;;;;;10.70;10.00;;;;;;;21.95;61.08;100937.03;4891604;28;102037;-83
2022/08/06 08:17:10;;;;;;;11.75;10.77;;;;;;;21.69;61.07;100921.88;4892345;28;98100;-84
2022/08/06 08:19:36;;;;;;;11.70;10.75;;;;;;;21.70;60.64;100936.97;4902849;28;96726;-84
2022/08/06 08:22:13;;;;;;;11.57;10.65;;;;;;;21.86;60.77;100952.75;4892620;28;96987;-83
2022/08/06 08:24:39;;;;;;;11.52;10.63;;;;;;;21.87;60.32;100957.13;4909256;28;98303;-85
2022/08/06 08:27:10;;;;;;;12.18;10.65;;;;;;;21.62;60.83;100941.16;4878659;28;100472;-83
2022/08/06 08:29:36;;;;;;;10.80;10.20;;;;;;;21.68;61.06;100941.56;4910302;28;96735;-83
2022/08/06 08:32:02;;;;;;;11.68;10.85;;;;;;;21.78;60.55;100954.25;4891575;28;97019;-83
2022/08/06 08:34:28;;;;;;;12.10;11.00;;;;;;;21.64;60.80;100942.75;4911139;28;97994;-83
2022/08/06 08:36:54;;;;;;;11.82;10.63;;;;;;;21.72;60.97;100952.03;4890605;28;101225;-83
2022/08/06 08:39:19;;;;;;;12.10;11.30;;;;;;;21.80;60.96;100955.00;4892166;28;96738;-83
2022/08/06 08:42:06;;;;;;;11.75;11.05;;;;;;;21.97;60.79;100968.03;4910358;28;96835;-84
2022/08/06 08:44:33;;;;;;;11.93;11.13;;;;;;;22.02;60.83;100952.53;4910079;28;98609;-85
2022/08/06 08:46:59;;;;;;;11.15;10.35;;;;;;;22.24;59.59;100946.47;4891049;28;97807;-85
2022/08/06 08:49:52;;;;;;;12.15;11.07;;;;;;;22.39;59.32;100963.22;4906236;28;96816;-83
2022/08/06 08:52:28;;;;;;;11.70;10.82;;;;;;;22.50;58.19;100941.88;4894370;28;97218;-83
2022/08/06 08:55:02;;;;;;;11.93;11.02;;;;;;;22.81;58.26;100958.34;4912918;28;98629;-83
2022/08/06 08:57:28;;;;;;;10.90;10.15;;;;;;;22.72;58.44;100948.28;4881800;28;101507;-84
2022/08/06 08:59:54;;;;;;;11.07;10.38;;;;;;;22.90;57.74;100968.34;4877443;28;96928;-84
2022/08/06 09:02:20;;;;;;;11.43;10.63;;;;;;;22.89;58.02;100965.75;4889401;28;96936;-83
2022/08/06 09:04:45;;;;;;;11.50;10.73;;;;;;;22.77;57.90;100968.41;4896051;28;101146;-86
2022/08/06 09:07:11;;;;;;;10.45;9.65;;;;;;;22.81;57.49;100964.53;4914303;28;97041;-83
2022/08/06 09:09:38;;;;;;;10.43;9.80;;;;;;;22.65;57.84;100961.28;4912851;28;98551;-85
2022/08/06 09:12:05;;;;;;;10.25;9.55;;;;;;;22.63;58.02;100959.69;4913779;28;97014;-83
2022/08/06 09:14:31;;;;;;;11.30;10.02;;;;;;;22.60;57.77;100968.78;4896414;28;101816;-83
2022/08/06 09:16:58;;;;;;;10.90;10.02;;;;;;;22.57;57.68;100977.06;4894271;28;98465;-84
2022/08/06 09:19:25;;;;;;;10.70;9.85;;;;;;;22.53;58.02;100975.59;4912998;28;96980;-82
2022/08/06 09:21:51;;;;;;;11.30;10.50;;;;;;;22.56;57.91;100983.38;4913837;28;96726;-83
2022/08/06 09:24:17;;;;;;;12.00;10.93;;;;;;;22.56;58.06;100981.56;4913119;28;97617;-83
2022/08/06 09:27:07;;;;;;;11.73;10.82;;;;;;;22.47;58.03;100963.50;4896603;28;101393;-83
2022/08/06 09:29:33;;;;;;;10.98;10.07;;;;;;;22.63;57.90;100983.78;4889214;28;97062;-83
2022/08/06 09:31:59;;;;;;;10.52;9.73;;;;;;;22.65;57.42;100989.88;4913715;28;98409;-83
2022/08/06 09:34:37;;;;;;;11.18;10.40;;;;;;;22.66;57.62;100987.09;4912968;28;97705;-84
2022/08/06 09:37:03;;;;;;;10.90;9.95;;;;;;;22.69;56.96;100972.63;4893345;28;101398;-85
2022/08/06 09:39:39;;;;;;;11.55;10.75;;;;;;;22.86;56.39;100990.94;4890173;28;96988;-83
2022/08/06 09:42:05;;;;;;;10.73;9.82;;;;;;;22.96;56.08;100967.06;4910392;28;96876;-86
2022/08/06 09:44:31;;;;;;;10.00;9.30;;;;;;;22.98;55.72;100973.13;4912489;28;98087;-84
2022/08/06 09:46:57;;;;;;;10.07;9.45;;;;;;;23.32;55.39;100994.66;4912639;28;108307;-83
2022/08/06 09:49:23;;;;;;;11.45;10.70;;;;;;;23.39;54.74;100995.91;4895448;28;96984;-83
2022/08/06 09:51:49;;;;;;;11.07;10.18;;;;;;;23.37;54.90;100997.84;4893032;28;97303;-83
2022/08/06 09:54:18;;;;;;;9.85;9.05;;;;;;;23.20;54.46;100983.06;4893634;28;101341;-83
2022/08/06 09:56:45;;;;;;;11.25;10.35;;;;;;;23.49;53.48;100989.69;4912979;28;97619;-83
2022/08/06 09:59:11;;;;;;;11.27;10.57;;;;;;;23.63;52.89;100996.66;4893246;28;96803;-83
2022/08/06 10:01:43;;;;;;;11.48;10.52;;;;;;;23.70;52.22;100989.88;4892229;28;97091;-83
2022/08/06 10:04:13;;;;;;;11.02;9.90;;;;;;;23.71;52.09;100986.25;4904528;28;97522;-83
2022/08/06 10:06:59;;;;;;;10.80;10.10;;;;;;;23.91;52.17;100995.38;4877224;28;100826;-83
2022/08/06 10:09:26;;;;;;;13.65;10.73;;;;;;;23.91;52.07;100997.19;4886909;28;96759;-85
2022/08/06 10:11:52;;;;;;;11.70;10.82;;;;;;;24.55;51.38;100988.47;4892378;28;97231;-83
2022/08/06 10:14:26;;;;;;;11.48;10.68;;;;;;;24.67;49.87;100981.25;4888932;28;98192;-84
2022/08/06 10:17:12;;;;;;;11.50;10.70;;;;;;;24.72;49.37;100995.13;4892683;28;97605;-83
2022/08/06 10:19:41;;;;;;;10.77;10.07;;;;;;;24.70;49.02;100994.44;4889680;28;96850;-83
2022/08/06 10:22:12;;;;;;;11.18;10.18;;;;;;;24.63;49.53;101013.69;4896227;28;96877;-83
2022/08/06 10:24:42;;;;;;;12.52;10.32;;;;;;;24.60;48.71;100997.84;4879929;28;100333;-83
2022/08/06 10:27:10;;;;;;;11.25;10.27;;;;;;;24.65;48.79;101010.91;4894669;28;99336;-84
2022/08/06 10:29:40;;;;;;;12.20;11.07;;;;;;;24.88;48.75;101014.38;4892277;28;96985;-83
2022/08/06 10:32:08;;;;;;;11.27;10.57;;;;;;;25.32;47.41;101014.31;4906388;28;96919;-83
2022/08/06 10:34:35;;;;;;;10.70;10.00;;;;;;;25.27;46.54;100990.53;4911790;28;98728;-84
2022/08/06 10:37:07;;;;;;;11.50;10.70;;;;;;;25.50;46.83;100999.28;4911361;28;97490;-84
2022/08/06 10:39:36;;;;;;;10.05;9.45;;;;;;;25.38;47.13;100993.16;4911816;28;96776;-84
2022/08/06 10:42:03;;;;;;;10.88;10.15;;;;;;;25.42;47.17;101001.78;4893166;28;97358;-85
2022/08/06 10:44:28;;;;;;;10.68;9.90;;;;;;;25.88;45.67;101004.06;4893160;28;100540;-83
2022/08/06 10:46:54;;;;;;;10.80;9.88;;;;;;;26.22;45.05;101001.06;4911671;28;97402;-84
2022/08/06 10:49:20;;;;;;;11.52;10.75;;;;;;;26.36;44.34;100995.31;4894310;28;96839;-84
2022/08/06 10:51:47;;;;;;;11.55;10.85;;;;;;;26.61;43.72;101004.72;4875281;28;97085;-82
2022/08/06 10:54:14;;;;;;;11.27;10.23;;;;;;;26.81;43.03;100986.72;4889499;28;101635;-85
2022/08/06 10:56:40;;;;;;;10.55;9.85;;;;;;;26.66;43.28;100998.06;4895446;28;101568;-85
2022/08/06 10:59:06;;;;;;;10.38;9.60;;;;;;;26.46;43.69;100989.94;4892735;28;96719;-83
2022/08/06 11:01:51;;;;;;;10.45;9.75;;;;;;;26.23;43.33;100981.25;4909871;28;96897;-84
2022/08/06 11:04:34;;;;;;;11.43;10.38;;;;;;;26.50;42.57;100996.78;4907174;28;102759;-83
2022/08/06 11:07:20;;;;;;;10.68;9.88;;;;;;;26.53;42.47;100992.94;4884732;28;101491;-83
2022/08/06 11:09:48;;;;;;;10.80;10.07;;;;;;;26.43;41.76;100991.06;4883524;28;97183;-83
2022/08/06 11:12:48;;;;;;;10.77;9.77;;;;;;;26.32;41.40;100982.25;4912214;28;96885;-83
2022/08/06 11:15:14;;;;;;;10.98;10.07;;;;;;;25.83;42.79;100970.47;4892369;28;98040;-83
2022/08/06 11:17:44;;;;;;;11.05;10.00;;;;;;;25.91;43.14;100962.59;4913588;28;97446;-83
2022/08/06 11:20:33;;;;;;;10.90;10.10;;;;;;;26.12;43.21;100982.22;4884061;28;97617;-83
2022/08/06 11:23:00;;;;;;;10.77;9.85;;;;;;;26.30;43.33;100984.25;4892464;28;96906;-83